Time;durP1;ratioP1;P1;durP2;ratioP2;P2;SDS_P1;SDS_P2;PMS_P1;PMS_P2;Temp;Humidity;BMP_temperature;BMP_pressure;BME280_temperature;BME280_humidity;BME280_pressure;Samples;Min_cycle;Max_cycle;Signal;HPM_P1;HPM_P2
2022/01/07 00:00:16;;;;;;;14.38;3.75;;;3.40;68.90;;;;;;5033217;28;20049;-80
2022/01/07 00:02:46;;;;;;;7.13;2.83;;;3.30;65.30;;;;;;5017558;28;20045;-78
2022/01/07 00:05:13;;;;;;;11.75;2.35;;;3.30;66.50;;;;;;4999935;28;20041;-77
2022/01/07 00:07:40;;;;;;;11.57;3.50;;;3.30;62.50;;;;;;5032299;28;20503;-81
2022/01/07 00:10:07;;;;;;;9.40;3.67;;;3.30;70.50;;;;;;5016202;28;20332;-81
2022/01/07 00:12:32;;;;;;;10.95;3.58;;;3.20;97.80;;;;;;5033541;28;20052;-78
2022/01/07 00:14:58;;;;;;;14.05;3.13;;;3.20;97.10;;;;;;5017066;28;20034;-78
2022/01/07 00:17:24;;;;;;;10.73;3.30;;;3.20;99.90;;;;;;5000501;28;20095;-78
2022/01/07 00:19:50;;;;;;;7.30;2.58;;;3.10;99.90;;;;;;5016715;28;20132;-81
2022/01/07 00:22:15;;;;;;;11.52;3.58;;;3.10;99.90;;;;;;5032653;28;20646;-79
2022/01/07 00:24:41;;;;;;;10.13;3.53;;;3.00;99.90;;;;;;5033483;28;20138;-81
2022/01/07 00:27:07;;;;;;;14.20;4.80;;;3.00;99.90;;;;;;5033326;28;20051;-78
2022/01/07 00:29:33;;;;;;;11.37;3.40;;;2.90;99.90;;;;;;5032982;28;20076;-81
2022/01/07 00:31:58;;;;;;;9.48;3.28;;;2.80;99.90;;;;;;5016187;28;20132;-79
2022/01/07 00:34:24;;;;;;;17.97;5.03;;;2.80;99.90;;;;;;5032920;28;20041;-78
2022/01/07 00:36:50;;;;;;;16.00;4.30;;;2.70;99.90;;;;;;4999282;28;20087;-81
2022/01/07 00:39:16;;;;;;;9.23;2.72;;;2.70;99.90;;;;;;5016471;28;20707;-81
2022/01/07 00:41:42;;;;;;;11.23;4.13;;;2.60;99.90;;;;;;5016733;28;20042;-81
2022/01/07 00:44:07;;;;;;;7.10;2.83;;;2.60;99.90;;;;;;5032692;28;20049;-81
2022/01/07 00:46:33;;;;;;;10.43;3.97;;;2.50;99.90;;;;;;5016369;28;20060;-82
2022/01/07 00:48:59;;;;;;;14.23;4.72;;;2.50;99.90;;;;;;5032519;28;20045;-78
2022/01/07 00:51:25;;;;;;;8.30;3.40;;;2.40;99.90;;;;;;5032468;28;20127;-81
2022/01/07 00:53:50;;;;;;;6.32;2.55;;;2.40;99.90;;;;;;5016334;28;20492;-78
2022/01/07 00:56:16;;;;;;;11.63;4.93;;;2.40;99.90;;;;;;5032408;28;20412;-78
2022/01/07 00:58:42;;;;;;;9.53;3.03;;;2.40;99.90;;;;;;5033185;28;20046;-81
2022/01/07 01:01:07;;;;;;;13.80;3.72;;;2.30;99.90;;;;;;5015760;28;20120;-79
2022/01/07 01:03:33;;;;;;;11.67;2.80;;;2.30;99.90;;;;;;5048979;28;20037;-78
2022/01/07 01:05:59;;;;;;;16.75;3.30;;;2.30;99.90;;;;;;4999380;28;20460;-82
2022/01/07 01:08:26;;;;;;;9.60;3.67;;;2.30;99.90;;;;;;5015034;28;20116;-81
2022/01/07 01:10:53;;;;;;;7.07;2.93;;;2.30;99.90;;;;;;5031818;28;20500;-79
2022/01/07 01:13:19;;;;;;;11.43;3.80;;;2.20;99.90;;;;;;5032283;28;20054;-81
2022/01/07 01:15:45;;;;;;;6.60;3.47;;;2.20;99.90;;;;;;5015166;28;20041;-78
2022/01/07 01:18:11;;;;;;;10.35;4.05;;;2.30;99.90;;;;;;5032293;28;20049;-80
2022/01/07 01:20:37;;;;;;;7.30;3.25;;;2.20;99.90;;;;;;5031573;28;20500;-81
2022/01/07 01:23:02;;;;;;;14.05;5.45;;;2.20;99.90;;;;;;5015522;28;20045;-79
2022/01/07 01:25:29;;;;;;;8.87;3.37;;;2.20;99.90;;;;;;4999068;28;20057;-77
2022/01/07 01:27:54;;;;;;;8.33;3.73;;;2.70;99.90;;;;;;5015088;28;20049;-82
2022/01/07 01:30:26;;;;;;;9.13;3.67;;;2.20;99.90;;;;;;5048362;28;20052;-82
2022/01/07 01:32:53;;;;;;;12.43;4.90;;;2.10;99.90;;;;;;5015369;28;20045;-81
2022/01/07 01:35:20;;;;;;;7.60;3.20;;;2.20;99.90;;;;;;5031680;28;20056;-81
2022/01/07 01:37:47;;;;;;;7.30;3.40;;;2.10;99.90;;;;;;5031653;28;20069;-78
2022/01/07 01:40:15;;;;;;;8.30;3.37;;;2.10;99.90;;;;;;5031491;28;20041;-81
2022/01/07 01:42:41;;;;;;;8.97;3.87;;;2.00;99.90;;;;;;5031475;28;20042;-79
2022/01/07 01:45:09;;;;;;;11.00;2.93;;;2.00;99.90;;;;;;5015101;28;20135;-79
2022/01/07 01:47:35;;;;;;;8.10;3.90;;;2.00;99.90;;;;;;5030103;28;20113;-81
2022/01/07 01:50:00;;;;;;;9.00;4.27;;;2.00;99.90;;;;;;5030420;28;20081;-81
2022/01/07 01:52:26;;;;;;;6.78;4.32;;;2.00;99.90;;;;;;5030181;28;20045;-78
2022/01/07 01:54:52;;;;;;;7.23;3.37;;;2.00;99.90;;;;;;5047190;28;20052;-81
2022/01/07 01:57:18;;;;;;;10.13;3.90;;;2.00;99.90;;;;;;5047372;28;20103;-81
2022/01/07 01:59:44;;;;;;;8.83;4.73;;;2.00;99.90;;;;;;5031767;28;20068;-78
2022/01/07 02:02:10;;;;;;;9.37;4.23;;;2.00;99.90;;;;;;4998630;28;20056;-80
2022/01/07 02:04:38;;;;;;;9.10;5.13;;;2.10;99.90;;;;;;5015391;28;20132;-78
2022/01/07 02:07:07;;;;;;;12.13;5.23;;;2.00;99.90;;;;;;5014144;28;20415;-78
2022/01/07 02:09:35;;;;;;;11.40;4.47;;;2.00;99.90;;;;;;5031459;28;20429;-78
2022/01/07 02:12:06;;;;;;;13.57;4.83;;;2.00;99.90;;;;;;5031411;28;20053;-80
2022/01/07 02:14:32;;;;;;;8.23;2.78;;;2.00;99.90;;;;;;5031324;28;20128;-78
2022/01/07 02:17:08;;;;;;;6.90;3.33;;;2.00;99.90;;;;;;5031072;28;20041;-81
2022/01/07 02:19:35;;;;;;;11.77;5.57;;;2.20;99.90;;;;;;5014795;28;20096;-80
2022/01/07 02:22:02;;;;;;;8.73;5.03;;;2.00;99.90;;;;;;5047324;28;20041;-77
2022/01/07 02:24:28;;;;;;;10.15;4.38;;;2.10;99.90;;;;;;5031180;28;20051;-81
2022/01/07 02:26:55;;;;;;;8.43;4.47;;;2.00;99.90;;;;;;4998636;28;20404;-78
2022/01/07 02:29:21;;;;;;;7.30;4.30;;;2.10;99.90;;;;;;5031174;28;20045;-78
2022/01/07 02:31:48;;;;;;;12.20;5.18;;;2.10;99.90;;;;;;5030945;28;20124;-78
2022/01/07 02:34:13;;;;;;;10.18;4.53;;;2.10;99.90;;;;;;5031255;28;20049;-80
2022/01/07 02:36:39;;;;;;;9.53;5.60;;;2.00;99.90;;;;;;4995721;28;20071;-77
2022/01/07 02:39:05;;;;;;;11.00;5.63;;;2.10;99.90;;;;;;5014326;28;20500;-81
2022/01/07 02:41:31;;;;;;;9.63;5.40;;;2.00;99.90;;;;;;5014545;28;20045;-81
2022/01/07 02:43:57;;;;;;;7.60;3.57;;;2.10;99.90;;;;;;5014975;28;20099;-78
2022/01/07 02:46:23;;;;;;;10.93;6.00;;;2.10;99.90;;;;;;5014317;28;20103;-78
2022/01/07 02:48:48;;;;;;;17.07;7.47;;;2.10;99.90;;;;;;5014437;28;20038;-81
2022/01/07 02:51:14;;;;;;;15.80;8.53;;;2.00;99.90;;;;;;5014285;28;20038;-79
2022/01/07 02:53:40;;;;;;;10.83;5.00;;;2.00;99.90;;;;;;5031235;28;20098;-78
2022/01/07 02:56:06;;;;;;;6.90;4.13;;;1.90;99.90;;;;;;5014194;28;20459;-81
2022/01/07 02:58:31;;;;;;;10.33;5.87;;;2.00;99.90;;;;;;5031247;28;20042;-81
2022/01/07 03:00:57;;;;;;;5.53;4.07;;;1.90;99.90;;;;;;5014504;28;20045;-78
2022/01/07 03:03:23;;;;;;;12.57;4.73;;;1.90;99.90;;;;;;5048064;28;20489;-79
2022/01/07 03:05:49;;;;;;;11.10;5.43;;;1.90;99.90;;;;;;5014157;28;20060;-81
2022/01/07 03:08:15;;;;;;;9.33;4.63;;;1.90;99.90;;;;;;5030042;28;20065;-81
2022/01/07 03:10:40;;;;;;;9.43;4.50;;;1.90;99.90;;;;;;5014033;28;20052;-81
2022/01/07 03:13:06;;;;;;;9.13;4.87;;;1.80;99.90;;;;;;5030559;28;20083;-81
2022/01/07 03:15:34;;;;;;;10.83;4.53;;;1.90;99.90;;;;;;5014428;28;20538;-79
2022/01/07 03:18:01;;;;;;;8.90;5.33;;;1.90;99.90;;;;;;5030404;28;20057;-78
2022/01/07 03:20:26;;;;;;;5.67;3.97;;;1.90;99.90;;;;;;5014674;28;20416;-81
2022/01/07 03:22:52;;;;;;;9.13;4.73;;;2.00;99.90;;;;;;5030070;28;20041;-81
2022/01/07 03:25:19;;;;;;;15.60;7.00;;;2.00;99.90;;;;;;5031143;28;20042;-78
2022/01/07 03:27:44;;;;;;;9.80;7.00;;;1.90;99.90;;;;;;5014145;28;20120;-78
2022/01/07 03:30:12;;;;;;;10.40;4.40;;;2.00;99.90;;;;;;4998010;28;20543;-78
2022/01/07 03:32:38;;;;;;;9.40;5.30;;;2.00;99.90;;;;;;5031827;28;20565;-82
2022/01/07 03:35:09;;;;;;;6.30;4.50;;;2.00;99.90;;;;;;5017857;28;20049;-78
2022/01/07 03:37:35;;;;;;;8.90;4.50;;;2.00;99.90;;;;;;5033200;28;20120;-81
2022/01/07 03:40:02;;;;;;;9.17;4.17;;;2.00;99.90;;;;;;5017861;28;20139;-81
2022/01/07 03:42:28;;;;;;;11.13;6.90;;;2.10;99.90;;;;;;5017630;28;20049;-78
2022/01/07 03:44:53;;;;;;;7.97;5.73;;;2.00;99.90;;;;;;5017487;28;20041;-78
2022/01/07 03:47:19;;;;;;;6.17;4.23;;;2.10;99.90;;;;;;5033579;28;20072;-81
2022/01/07 03:49:45;;;;;;;21.33;7.57;;;2.10;99.90;;;;;;5017559;28;20045;-78
2022/01/07 03:52:10;;;;;;;10.17;5.60;;;2.10;99.90;;;;;;5017138;28;20053;-81
2022/01/07 03:54:36;;;;;;;10.23;5.90;;;2.10;99.90;;;;;;5050610;28;20511;-81
2022/01/07 03:57:02;;;;;;;9.23;5.77;;;2.20;99.90;;;;;;5033015;28;20042;-80
2022/01/07 03:59:27;;;;;;;7.82;5.00;;;2.20;99.90;;;;;;5017480;28;20041;-82
2022/01/07 04:01:53;;;;;;;12.25;7.05;;;2.20;99.90;;;;;;5033747;28;20033;-78
2022/01/07 04:04:19;;;;;;;12.40;7.53;;;2.20;99.90;;;;;;5001170;28;20103;-78
2022/01/07 04:06:45;;;;;;;7.37;4.83;;;2.20;99.90;;;;;;5016664;28;20037;-78
2022/01/07 04:09:10;;;;;;;9.23;5.07;;;2.20;99.90;;;;;;5016799;28;20480;-78
2022/01/07 04:11:36;;;;;;;8.53;5.87;;;2.20;99.90;;;;;;5033617;28;20057;-81
2022/01/07 04:14:02;;;;;;;9.83;7.27;;;2.20;99.90;;;;;;5033793;28;20128;-81
2022/01/07 04:16:27;;;;;;;10.63;6.77;;;2.20;99.90;;;;;;5049665;28;20046;-81
2022/01/07 04:18:53;;;;;;;14.60;7.87;;;2.30;99.90;;;;;;5000635;28;20042;-78
2022/01/07 04:21:19;;;;;;;11.43;7.60;;;2.20;99.90;;;;;;5049966;28;20045;-78
2022/01/07 04:23:44;;;;;;;8.03;6.10;;;2.20;99.90;;;;;;5049231;28;20511;-78
2022/01/07 04:26:10;;;;;;;10.60;5.30;;;2.20;99.90;;;;;;5032898;28;20049;-81
2022/01/07 04:28:36;;;;;;;8.60;5.85;;;2.20;99.90;;;;;;5033614;28;20480;-78
2022/01/07 04:31:01;;;;;;;9.67;6.33;;;2.20;99.90;;;;;;5049767;28;20045;-81
2022/01/07 04:33:30;;;;;;;11.27;8.53;;;2.30;99.90;;;;;;5032873;28;20475;-81
2022/01/07 04:35:56;;;;;;;9.23;6.43;;;2.30;99.90;;;;;;5016603;28;20049;-78
2022/01/07 04:38:22;;;;;;;12.25;6.45;;;2.30;99.90;;;;;;5015612;28;20049;-78
2022/01/07 04:40:48;;;;;;;10.60;6.93;;;2.30;99.90;;;;;;5032748;28;20041;-79
2022/01/07 04:43:14;;;;;;;11.45;6.30;;;2.30;99.90;;;;;;4996226;28;20107;-78
2022/01/07 04:45:41;;;;;;;6.27;4.77;;;2.40;99.90;;;;;;5017892;28;20120;-78
2022/01/07 04:48:07;;;;;;;9.17;6.70;;;2.30;99.90;;;;;;5016011;28;20045;-81
2022/01/07 04:50:33;;;;;;;11.48;6.78;;;2.40;99.90;;;;;;5016166;28;20041;-81
2022/01/07 04:52:59;;;;;;;9.95;6.20;;;2.40;99.90;;;;;;5032585;28;20064;-78
2022/01/07 04:55:37;;;;;;;9.33;5.97;;;2.40;99.90;;;;;;5000008;28;20052;-81
2022/01/07 04:58:04;;;;;;;12.43;7.25;;;2.40;99.90;;;;;;5032757;28;20384;-78
2022/01/07 05:00:30;;;;;;;14.38;9.65;;;2.40;99.90;;;;;;5032655;28;20056;-78
2022/01/07 05:02:56;;;;;;;10.77;8.52;;;2.50;99.90;;;;;;5015395;28;20045;-81
2022/01/07 05:05:21;;;;;;;9.60;5.35;;;2.40;99.90;;;;;;5032549;28;20115;-78
2022/01/07 05:07:47;;;;;;;16.58;9.07;;;2.50;99.90;;;;;;5014539;28;20500;-78
2022/01/07 05:10:15;;;;;;;9.63;5.47;;;2.40;99.90;;;;;;5049114;28;20542;-81
2022/01/07 05:12:42;;;;;;;6.30;4.03;;;2.50;99.90;;;;;;5032194;28;20067;-81
2022/01/07 05:15:10;;;;;;;8.67;5.93;;;2.50;99.90;;;;;;5032584;28;20092;-78
2022/01/07 05:17:35;;;;;;;10.80;8.07;;;2.50;99.90;;;;;;5031574;28;20073;-78
2022/01/07 05:20:03;;;;;;;9.27;6.77;;;2.50;99.90;;;;;;5015633;28;20068;-78
2022/01/07 05:22:29;;;;;;;10.10;5.70;;;2.50;99.90;;;;;;5015282;28;20042;-81
2022/01/07 05:24:55;;;;;;;15.90;9.23;;;2.60;99.90;;;;;;5031874;28;20041;-78
2022/01/07 05:27:20;;;;;;;9.83;6.20;;;2.60;99.90;;;;;;5015556;28;20045;-80
2022/01/07 05:29:46;;;;;;;13.53;9.53;;;2.60;99.90;;;;;;5049092;28;20049;-81
2022/01/07 05:32:12;;;;;;;8.57;5.63;;;2.60;99.90;;;;;;5048631;28;20041;-77
2022/01/07 05:34:38;;;;;;;9.43;7.03;;;2.60;99.90;;;;;;5031773;28;20128;-78
2022/01/07 05:37:04;;;;;;;10.27;6.27;;;2.80;99.90;;;;;;5032126;28;20056;-78
2022/01/07 05:39:30;;;;;;;10.55;7.00;;;2.60;99.90;;;;;;5047239;28;20049;-79
2022/01/07 05:41:57;;;;;;;9.93;5.57;;;2.60;99.90;;;;;;5031379;28;20063;-81
2022/01/07 05:44:23;;;;;;;14.35;8.93;;;2.70;99.90;;;;;;5048524;28;20115;-78
2022/01/07 05:46:49;;;;;;;11.60;5.70;;;2.60;99.90;;;;;;5015182;28;20037;-78
2022/01/07 05:49:15;;;;;;;10.15;6.38;;;2.70;99.90;;;;;;5015315;28;20084;-81
2022/01/07 05:51:41;;;;;;;13.43;7.13;;;2.80;99.90;;;;;;5015373;28;20136;-81
2022/01/07 05:54:10;;;;;;;9.32;5.35;;;2.70;99.90;;;;;;5031344;28;20411;-81
2022/01/07 05:56:36;;;;;;;7.65;4.45;;;2.70;99.90;;;;;;5031592;28;20488;-81
2022/01/07 05:59:04;;;;;;;10.80;6.47;;;2.80;99.90;;;;;;5014874;28;20049;-79
2022/01/07 06:01:30;;;;;;;7.40;5.40;;;2.80;99.90;;;;;;5047648;28;20041;-78
2022/01/07 06:03:55;;;;;;;8.75;5.43;;;2.80;99.90;;;;;;4998870;28;20081;-78
2022/01/07 06:06:21;;;;;;;11.75;6.47;;;2.80;99.90;;;;;;5031427;28;20104;-78
2022/01/07 06:08:47;;;;;;;15.20;8.77;;;2.80;99.90;;;;;;5031275;28;20057;-78
2022/01/07 06:11:13;;;;;;;15.25;7.53;;;2.80;99.90;;;;;;5014408;28;20064;-78
2022/01/07 06:13:40;;;;;;;12.73;6.90;;;2.80;99.90;;;;;;5031687;28;20041;-80
2022/01/07 06:16:06;;;;;;;12.00;5.70;;;2.90;99.90;;;;;;5031313;28;20046;-78
2022/01/07 06:18:32;;;;;;;7.68;5.43;;;2.90;99.90;;;;;;4998760;28;20068;-79
2022/01/07 06:20:57;;;;;;;9.50;6.05;;;3.00;99.90;;;;;;4997856;28;20143;-81
2022/01/07 06:23:23;;;;;;;10.75;7.72;;;2.90;99.90;;;;;;5030641;28;20508;-78
2022/01/07 06:25:49;;;;;;;7.90;5.45;;;2.90;99.90;;;;;;5047782;28;20522;-79
2022/01/07 06:28:17;;;;;;;13.90;9.50;;;2.90;99.90;;;;;;5047661;28;20090;-81
2022/01/07 06:30:43;;;;;;;15.60;9.87;;;2.90;99.90;;;;;;5031077;28;20042;-81
2022/01/07 06:33:08;;;;;;;8.38;6.60;;;2.80;99.90;;;;;;5030993;28;20069;-82
2022/01/07 06:35:34;;;;;;;13.77;8.35;;;2.80;99.90;;;;;;5014795;28;20514;-78
2022/01/07 06:38:00;;;;;;;9.55;5.30;;;2.90;99.90;;;;;;5047780;28;20050;-81
2022/01/07 06:40:26;;;;;;;7.55;6.05;;;2.90;99.90;;;;;;5030995;28;20199;-81
2022/01/07 06:42:51;;;;;;;12.68;9.40;;;3.00;99.90;;;;;;5030667;28;20065;-79
2022/01/07 06:45:17;;;;;;;10.00;8.18;;;3.00;99.90;;;;;;5031370;28;20488;-81
2022/01/07 06:47:43;;;;;;;7.90;5.15;;;2.90;99.90;;;;;;5031106;28;20041;-81
2022/01/07 06:50:10;;;;;;;9.48;6.15;;;2.90;99.90;;;;;;5030354;28;20053;-81
2022/01/07 06:52:35;;;;;;;16.02;11.48;;;2.90;99.90;;;;;;5030938;28;20045;-78
2022/01/07 06:55:02;;;;;;;7.50;5.63;;;2.90;99.90;;;;;;5030651;28;20045;-81
2022/01/07 06:57:27;;;;;;;8.63;6.00;;;3.00;99.90;;;;;;5030725;28;20080;-78
2022/01/07 06:59:53;;;;;;;10.67;8.50;;;3.10;99.90;;;;;;5014702;28;20068;-81
2022/01/07 07:02:19;;;;;;;14.70;9.80;;;3.10;99.90;;;;;;5014396;28;20103;-80
2022/01/07 07:04:46;;;;;;;12.95;8.85;;;3.10;99.90;;;;;;5047784;28;20051;-81
2022/01/07 07:07:13;;;;;;;11.93;8.63;;;3.10;99.90;;;;;;5031826;28;20037;-78
2022/01/07 07:09:38;;;;;;;9.23;6.47;;;3.20;99.90;;;;;;5033639;28;20128;-79
2022/01/07 07:12:05;;;;;;;7.50;5.27;;;3.20;99.90;;;;;;5034916;28;20480;-78
2022/01/07 07:14:30;;;;;;;7.95;5.80;;;3.20;99.90;;;;;;5001678;28;20077;-81
2022/01/07 07:16:56;;;;;;;8.68;6.20;;;3.20;99.90;;;;;;5050699;28;20076;-81
2022/01/07 07:19:22;;;;;;;10.02;6.40;;;3.30;99.90;;;;;;5017865;28;20072;-81
2022/01/07 07:21:48;;;;;;;9.90;7.57;;;3.30;99.90;;;;;;5034221;28;20076;-80
2022/01/07 07:24:14;;;;;;;16.90;11.27;;;3.40;99.90;;;;;;5034286;28;20041;-78
2022/01/07 07:26:40;;;;;;;10.15;6.90;;;3.40;99.90;;;;;;5017945;28;20042;-79
2022/01/07 07:29:05;;;;;;;21.33;12.07;;;3.50;99.90;;;;;;5033380;28;20099;-81
2022/01/07 07:31:32;;;;;;;8.65;5.03;;;3.50;99.90;;;;;;5034366;28;20045;-81
2022/01/07 07:34:20;;;;;;;17.20;8.40;;;3.50;99.90;;;;;;5017039;28;20043;-78
2022/01/07 07:36:46;;;;;;;16.27;12.38;;;3.50;99.90;;;;;;5050033;28;20079;-78
2022/01/07 07:39:14;;;;;;;12.65;7.88;;;3.40;99.90;;;;;;5034509;28;20045;-78
2022/01/07 07:41:41;;;;;;;8.32;5.13;;;3.30;99.90;;;;;;5034276;28;20034;-79
2022/01/07 07:44:08;;;;;;;10.13;7.32;;;3.30;99.90;;;;;;5034017;28;20053;-78
2022/01/07 07:46:35;;;;;;;18.03;10.17;;;3.30;99.90;;;;;;5034198;28;20037;-78
2022/01/07 07:49:03;;;;;;;21.60;13.02;;;3.30;99.90;;;;;;5017509;28;20053;-81
2022/01/07 07:51:30;;;;;;;27.93;16.07;;;3.30;99.90;;;;;;5034219;28;20195;-78
2022/01/07 07:53:56;;;;;;;15.30;8.25;;;3.30;99.90;;;;;;5033949;28;20049;-78
2022/01/07 07:56:22;;;;;;;12.65;6.88;;;3.40;99.90;;;;;;5017509;28;20040;-78
2022/01/07 07:58:48;;;;;;;20.08;11.18;;;3.50;99.90;;;;;;5034010;28;20050;-78
2022/01/07 08:01:15;;;;;;;14.30;9.32;;;3.50;99.90;;;;;;5034230;28;20526;-79
2022/01/07 08:03:41;;;;;;;18.20;12.57;;;3.50;99.90;;;;;;5033254;28;20088;-81
2022/01/07 08:06:07;;;;;;;17.02;9.93;;;3.60;99.90;;;;;;5049104;28;20088;-78
2022/01/07 08:08:33;;;;;;;17.48;12.32;;;3.60;99.90;;;;;;5031504;28;20081;-78
2022/01/07 08:11:02;;;;;;;22.42;15.65;;;3.60;99.90;;;;;;5032212;28;20053;-78
2022/01/07 08:13:30;;;;;;;14.73;7.30;;;3.60;99.90;;;;;;5015543;28;20044;-78
2022/01/07 08:16:03;;;;;;;18.63;10.40;;;3.60;99.90;;;;;;5016158;28;20033;-78
2022/01/07 08:18:32;;;;;;;20.20;13.23;;;3.60;99.90;;;;;;5014942;28;20119;-78
2022/01/07 08:21:05;;;;;;;13.88;10.38;;;3.60;99.90;;;;;;5032213;28;20488;-77
2022/01/07 08:23:32;;;;;;;21.77;12.20;;;3.50;99.90;;;;;;5032013;28;20038;-78
2022/01/07 08:25:58;;;;;;;23.25;10.02;;;3.50;99.90;;;;;;5031857;28;20119;-78
2022/01/07 08:28:28;;;;;;;17.15;11.02;;;3.50;99.90;;;;;;5012620;28;20042;-81
2022/01/07 08:31:14;;;;;;;16.45;9.10;;;3.50;99.90;;;;;;5048250;28;20053;-79
2022/01/07 08:36:28;;;;;;;25.67;13.60;;;3.50;99.90;;;;;;5048648;28;20060;-78
2022/01/07 08:38:54;;;;;;;23.17;13.85;;;3.50;99.90;;;;;;5031803;28;20034;-80
2022/01/07 08:41:22;;;;;;;24.30;12.00;;;3.50;99.90;;;;;;5031666;28;20392;-80
2022/01/07 08:43:48;;;;;;;14.75;10.93;;;3.50;99.90;;;;;;5047942;28;20049;-78
2022/01/07 08:46:14;;;;;;;16.58;9.68;;;3.60;99.90;;;;;;5031530;28;20084;-80
2022/01/07 08:48:40;;;;;;;21.70;15.18;;;3.50;99.90;;;;;;5031069;28;20045;-78
2022/01/07 08:51:07;;;;;;;19.77;11.68;;;3.60;99.90;;;;;;5031311;28;20492;-80
2022/01/07 08:53:33;;;;;;;24.45;16.13;;;3.60;99.90;;;;;;5047836;28;20053;-80
2022/01/07 08:55:59;;;;;;;19.48;13.65;;;3.70;99.90;;;;;;5030876;28;20048;-78
2022/01/07 08:58:25;;;;;;;24.83;14.10;;;3.70;99.90;;;;;;5047648;28;20041;-80
2022/01/07 09:00:51;;;;;;;19.00;12.50;;;3.80;99.90;;;;;;5031481;28;20144;-78
2022/01/07 09:03:17;;;;;;;19.80;11.30;;;3.80;99.90;;;;;;5047563;28;20049;-78
2022/01/07 09:05:43;;;;;;;22.17;15.05;;;3.80;99.90;;;;;;4998462;28;20043;-79
2022/01/07 09:08:10;;;;;;;32.40;16.02;;;3.80;99.90;;;;;;5030739;28;20046;-80
2022/01/07 09:10:36;;;;;;;18.85;12.68;;;3.90;99.90;;;;;;5028414;28;20080;-81
2022/01/07 09:13:02;;;;;;;31.10;15.75;;;3.90;99.90;;;;;;5031043;28;20409;-80
2022/01/07 09:15:28;;;;;;;17.70;10.20;;;4.00;99.90;;;;;;5047874;28;20068;-78
2022/01/07 09:17:54;;;;;;;17.52;11.07;;;4.10;99.90;;;;;;5047428;28;20045;-78
2022/01/07 09:20:21;;;;;;;24.35;13.55;;;4.10;99.90;;;;;;5014444;28;20068;-80
2022/01/07 09:22:47;;;;;;;13.85;8.00;;;4.20;99.90;;;;;;5014563;28;20423;-80
2022/01/07 09:25:13;;;;;;;20.23;10.45;;;4.20;99.90;;;;;;5030703;28;20041;-77
2022/01/07 09:27:40;;;;;;;25.48;12.80;;;4.30;99.90;;;;;;5014082;28;20041;-78
2022/01/07 09:30:07;;;;;;;14.43;8.88;;;4.30;99.90;;;;;;5030552;28;20536;-80
2022/01/07 09:32:33;;;;;;;15.27;8.90;;;4.30;99.90;;;;;;5012513;28;20049;-78
2022/01/07 09:34:58;;;;;;;28.83;16.13;;;4.30;99.90;;;;;;5016926;28;20042;-78
2022/01/07 09:37:24;;;;;;;14.13;7.53;;;4.40;99.90;;;;;;5014129;28;20041;-79
2022/01/07 09:39:50;;;;;;;21.52;11.00;;;4.50;99.90;;;;;;5030313;28;20038;-80
2022/01/07 09:42:16;;;;;;;17.95;10.90;;;4.50;99.90;;;;;;5047303;28;20052;-80
2022/01/07 09:44:45;;;;;;;20.45;11.27;;;4.60;99.90;;;;;;5030202;28;20041;-80
2022/01/07 09:47:12;;;;;;;17.42;11.30;;;4.40;99.90;;;;;;5014676;28;20128;-78
2022/01/07 09:49:39;;;;;;;23.63;14.73;;;4.40;99.90;;;;;;4997116;28;20045;-78
2022/01/07 09:52:06;;;;;;;11.13;8.05;;;4.30;99.90;;;;;;5030544;28;20053;-79
2022/01/07 09:54:36;;;;;;;12.95;5.88;;;4.30;99.90;;;;;;5030433;28;20037;-79
2022/01/07 09:57:07;;;;;;;24.25;12.25;;;4.30;99.90;;;;;;5030200;28;20116;-78
2022/01/07 09:59:37;;;;;;;16.58;8.25;;;4.20;99.90;;;;;;5030042;28;20041;-78
2022/01/07 10:02:08;;;;;;;11.52;7.30;;;4.10;99.90;;;;;;5047238;28;20084;-81
2022/01/07 10:04:41;;;;;;;10.85;7.22;;;4.10;99.90;;;;;;5047095;28;20107;-78
2022/01/07 10:07:11;;;;;;;;;;;4.10;99.90;;;;;;5030913;28;20041;-78
2022/01/07 10:09:38;;;;;;;16.65;9.48;;;4.10;99.90;;;;;;5044070;28;20038;-78
2022/01/07 10:12:06;;;;;;;15.55;8.65;;;4.20;99.90;;;;;;5030628;28;20500;-80
2022/01/07 10:14:33;;;;;;;19.05;8.77;;;4.20;99.90;;;;;;5030474;28;20396;-80
2022/01/07 10:17:01;;;;;;;10.70;4.78;;;4.40;99.90;;;;;;5013443;28;20080;-78
2022/01/07 10:19:38;;;;;;;8.88;4.20;;;4.40;99.90;;;;;;5013732;28;20081;-78
2022/01/07 10:22:08;;;;;;;9.43;4.05;;;4.40;99.90;;;;;;5046472;28;20049;-81
2022/01/07 10:24:56;;;;;;;6.03;3.97;;;4.30;99.90;;;;;;5013502;28;20041;-81
2022/01/07 10:27:23;;;;;;;7.72;3.83;;;4.20;99.90;;;;;;5013952;28;20558;-78
2022/01/07 10:29:49;;;;;;;6.47;2.65;;;4.20;99.90;;;;;;5013243;28;20449;-79
2022/01/07 10:32:45;;;;;;;7.10;3.20;;;4.00;99.90;;;;;;5031438;28;20041;-81
2022/01/07 10:35:15;;;;;;;3.88;2.80;;;4.10;99.90;;;;;;5030798;28;20164;-78
2022/01/07 10:37:53;;;;;;;7.28;4.05;;;4.10;99.90;;;;;;5031185;28;20041;-80
2022/01/07 10:40:40;;;;;;;6.18;3.28;;;4.00;99.90;;;;;;5014996;28;20104;-80
2022/01/07 10:43:13;;;;;;;6.85;3.35;;;4.00;99.90;;;;;;5035026;28;20045;-79
2022/01/07 10:45:40;;;;;;;4.35;2.30;;;4.10;99.90;;;;;;5018862;28;20512;-79
2022/01/07 10:48:07;;;;;;;4.88;2.22;;;4.00;99.90;;;;;;5035196;28;20527;-79
2022/01/07 10:50:37;;;;;;;12.07;2.13;;;4.20;99.90;;;;;;5018456;28;20042;-80
2022/01/07 10:53:27;;;;;;;6.93;2.35;;;4.30;99.90;;;;;;5050221;28;20045;-80
2022/01/07 10:56:12;;;;;;;4.95;1.33;;;4.40;99.90;;;;;;5033707;28;20465;-79
2022/01/07 10:58:46;;;;;;;4.85;1.73;;;4.50;99.90;;;;;;5033027;28;20034;-79
2022/01/07 11:01:21;;;;;;;6.63;1.83;;;4.50;99.90;;;;;;5016987;28;20403;-79
2022/01/07 11:03:48;;;;;;;3.05;1.00;;;4.40;99.90;;;;;;5031172;28;20045;-79
2022/01/07 11:06:14;;;;;;;3.45;0.80;;;4.20;99.90;;;;;;5017024;28;20038;-81
2022/01/07 11:08:41;;;;;;;5.05;1.50;;;4.10;99.90;;;;;;5033380;28;20060;-80
2022/01/07 11:11:08;;;;;;;6.32;1.67;;;4.10;99.90;;;;;;4999907;28;20053;-79
2022/01/07 11:13:35;;;;;;;3.83;1.27;;;4.10;99.90;;;;;;5016859;28;20042;-81
2022/01/07 11:16:05;;;;;;;9.50;2.83;;;4.10;99.90;;;;;;5033058;28;20045;-78
2022/01/07 11:18:32;;;;;;;5.03;1.58;;;4.20;99.90;;;;;;5016803;28;20056;-78
2022/01/07 11:21:02;;;;;;;2.72;1.30;;;4.30;99.90;;;;;;5016285;28;20084;-79
2022/01/07 11:23:29;;;;;;;8.70;2.50;;;4.40;99.90;;;;;;5033444;28;20103;-78
2022/01/07 11:26:24;;;;;;;8.20;2.97;;;4.70;99.90;;;;;;5032745;28;20484;-78
2022/01/07 11:28:59;;;;;;;6.80;3.15;;;4.70;99.90;;;;;;5032799;28;20045;-79
2022/01/07 11:31:26;;;;;;;4.45;1.85;;;4.70;99.90;;;;;;5032979;28;20516;-81
2022/01/07 11:34:23;;;;;;;8.35;3.35;;;4.70;99.90;;;;;;5034128;28;20373;-79
2022/01/07 11:36:49;;;;;;;11.38;4.20;;;4.80;99.90;;;;;;5033601;28;20412;-81
2022/01/07 11:39:15;;;;;;;7.47;3.92;;;4.90;99.90;;;;;;5034081;28;20056;-81
2022/01/07 11:41:45;;;;;;;13.40;4.25;;;4.90;99.90;;;;;;5033895;28;20041;-80
2022/01/07 11:44:21;;;;;;;8.13;3.70;;;4.90;99.90;;;;;;5050273;28;20053;-79
2022/01/07 11:46:46;;;;;;;9.02;4.18;;;4.90;99.90;;;;;;5017512;28;20132;-78
2022/01/07 11:49:39;;;;;;;11.20;5.43;;;5.10;99.90;;;;;;5049052;28;20116;-79
2022/01/07 11:52:28;;;;;;;9.63;5.85;;;5.10;99.90;;;;;;5015276;28;20333;-78
2022/01/07 11:55:15;;;;;;;19.90;5.88;;;5.10;99.90;;;;;;4999266;28;20160;-80
2022/01/07 11:57:48;;;;;;;8.48;5.07;;;5.20;99.90;;;;;;5032592;28;20088;-80
2022/01/07 12:00:14;;;;;;;11.27;4.32;;;5.30;99.90;;;;;;5032728;28;20132;-78
2022/01/07 12:03:02;;;;;;;11.82;5.53;;;5.40;99.90;;;;;;5015258;28;20133;-81
2022/01/07 12:05:32;;;;;;;13.23;5.30;;;5.60;99.90;;;;;;5013783;28;20127;-79
2022/01/07 12:07:57;;;;;;;12.35;5.68;;;5.60;99.90;;;;;;5032177;28;20492;-81
2022/01/07 12:10:23;;;;;;;11.55;6.38;;;5.50;99.90;;;;;;5015428;28;20136;-79
2022/01/07 12:12:50;;;;;;;15.20;5.13;;;5.50;99.90;;;;;;5031760;28;20077;-81
2022/01/07 12:15:16;;;;;;;15.85;5.18;;;5.20;99.90;;;;;;4999771;28;20392;-81
2022/01/07 12:17:42;;;;;;;9.32;5.55;;;5.00;99.90;;;;;;5048506;28;20048;-81
2022/01/07 12:20:49;;;;;;;7.38;3.13;;;4.90;99.90;;;;;;5015549;28;20113;-81
2022/01/07 12:23:19;;;;;;;13.32;4.43;;;5.00;99.90;;;;;;5048812;28;20038;-81
2022/01/07 12:25:50;;;;;;;10.93;4.80;;;5.10;99.90;;;;;;5048139;28;20410;-81
2022/01/07 12:28:16;;;;;;;8.05;3.35;;;5.20;99.90;;;;;;5031602;28;20439;-80
2022/01/07 12:30:43;;;;;;;15.90;7.55;;;5.30;99.90;;;;;;5032052;28;20042;-81
2022/01/07 12:33:10;;;;;;;9.13;3.67;;;5.40;99.90;;;;;;5032142;28;20045;-79
2022/01/07 12:35:37;;;;;;;7.30;2.88;;;5.40;99.90;;;;;;5031372;28;20046;-79
2022/01/07 12:38:11;;;;;;;4.90;2.35;;;5.40;99.90;;;;;;5031696;28;20053;-79
2022/01/07 12:40:37;;;;;;;14.50;6.85;;;5.30;99.90;;;;;;5031504;28;20037;-81
2022/01/07 12:43:02;;;;;;;2.88;1.83;;;5.40;99.90;;;;;;5015517;28;20183;-81
2022/01/07 12:45:30;;;;;;;6.97;3.17;;;5.80;99.90;;;;;;5014708;28;20041;-78
2022/01/07 12:47:57;;;;;;;13.45;4.18;;;6.30;99.90;;;;;;5015043;28;20088;-81
2022/01/07 12:50:24;;;;;;;8.60;2.53;;;6.60;99.90;;;;;;5031061;28;20045;-81
2022/01/07 12:52:51;;;;;;;3.75;1.15;;;6.80;92.20;;;;;;5015967;28;20048;-79
2022/01/07 12:55:27;;;;;;;10.60;1.75;;;6.80;34.70;;;;;;5015005;28;20408;-81